KAMW/AMW METAR and TAF weather

Enter ICAO airport designator
Station Type Date Time Source
KAMW METAR 2018/04/21 10:53 UTC NOAA

KAMW 211053Z AUTO 06004KT 10SM BKN120 06/01 A3037 RMK AO2 SLP285 T00610011


Station Type Date Time Source
KAMW Decoded METAR 2018/04/21 10:53 UTC NOAA

AMES MUNICIPAL AIRPORT, IA, United States (KAMW) 41-59N 93-37W 279M
Apr 21, 2018 - 06:53 AM EDT / 2018.04.21 1053 UTC
Wind: from the ENE (060 degrees) at 5 MPH (4 KT):0
Visibility: 10 mile(s):0
Sky conditions: mostly cloudy
Temperature: 43.0 F (6.1 C)
Dew Point: 34.0 F (1.1 C)
Relative Humidity: 70%
Pressure (altimeter): 30.37 in. Hg (1028 hPa)
ob: KAMW 211053Z AUTO 06004KT 10SM BKN120 06/01 A3037 RMK AO2 SLP285 T00610011
cycle: 11

Station Type Date Time Source
KAMW TAF UTC NOAA

Error!


Example: see airport list